Time;durP1;ratioP1;P1;durP2;ratioP2;P2;SDS_P1;SDS_P2;PMS_P1;PMS_P2;Temp;Humidity;BMP_temperature;BMP_pressure;BME280_temperature;BME280_humidity;BME280_pressure;Samples;Min_cycle;Max_cycle;Signal;HPM_P1;HPM_P2
2023/05/19 00:01:06;;;;;;;;;;;;;;;-140.72;100.00;52672.91;5009238;28;19940;-71
2023/05/19 00:03:32;;;;;;;;;;;;;;;-140.72;100.00;52664.81;5005528;28;19971;-71
2023/05/19 00:06:00;;;;;;;;;;;;;;;-140.72;100.00;52717.56;5009179;28;19929;-71
2023/05/19 00:08:38;;;;;;;;;;;;;;;-140.72;100.00;52705.38;5010930;28;19924;-71
2023/05/19 00:11:03;;;;;;;;;;;;;;;-140.72;100.00;52670.88;5010798;28;19925;-71
2023/05/19 00:13:48;;;;;;;;;;;;;;;-140.72;100.00;52715.53;4992379;28;20055;-72
2023/05/19 00:16:13;;;;;;;;;;;;;;;-140.72;100.00;52687.13;5007161;28;20460;-71
2023/05/19 00:18:39;;;;;;;;;;;;;;;-140.72;100.00;52681.03;5006896;28;20009;-72
2023/05/19 00:21:04;;;;;;;;;;;;;;;-140.72;100.00;52705.38;5005317;28;19921;-72
2023/05/19 00:23:29;;;;;;;;;;;;;;;-140.72;100.00;52672.91;5012439;28;20333;-72
2023/05/19 00:25:55;;;;;;;;;;;;;;;-140.72;100.00;52719.59;5013465;28;20049;-71
2023/05/19 00:28:20;;;;;;;;;;;;;;;-140.72;100.00;52705.38;5006575;28;20489;-71
2023/05/19 00:30:45;;;;;;;;;;;;;;;-140.72;100.00;52703.34;5007667;28;19918;-71
2023/05/19 00:33:10;;;;;;;;;;;;;;;-140.72;100.00;52705.38;5010232;28;19928;-71
2023/05/19 00:35:35;;;;;;;;;;;;;;;-140.72;100.00;52713.50;5012949;28;19921;-72
2023/05/19 00:38:06;;;;;;;;;;;;;;;-140.72;100.00;52683.06;5007746;28;19929;-72
2023/05/19 00:40:32;;;;;;;;;;;;;;;-140.72;100.00;52719.59;5003007;28;19922;-72
2023/05/19 00:42:57;;;;;;;;;;;;;;;-140.72;100.00;52709.44;5006951;28;19954;-71
2023/05/19 00:45:23;;;;;;;;;;;;;;;-140.72;100.00;52741.91;5009669;28;20510;-72
2023/05/19 00:47:53;;;;;;;;;;;;;;;-140.72;100.00;52717.56;5008851;28;20264;-71
2023/05/19 00:50:18;;;;;;;;;;;;;;;-140.72;100.00;52689.16;5009213;28;20264;-71
2023/05/19 00:52:44;;;;;;;;;;;;;;;-140.72;100.00;52733.78;5010587;28;19941;-71
2023/05/19 00:55:09;;;;;;;;;;;;;;;-140.72;100.00;52711.47;5009448;28;19968;-71
2023/05/19 00:57:35;;;;;;;;;;;;;;;-140.72;100.00;52715.53;5012265;28;20363;-71
2023/05/19 01:00:00;;;;;;;;;;;;;;;-140.72;100.00;52735.81;5010299;28;20375;-72
2023/05/19 01:02:28;;;;;;;;;;;;;;;-140.72;100.00;52670.88;5003604;28;19926;-72
2023/05/19 01:04:55;;;;;;;;;;;;;;;-140.72;100.00;52735.81;5012394;28;19975;-72
2023/05/19 01:07:24;;;;;;;;;;;;;;;-140.72;100.00;52666.84;5000687;28;19918;-72
2023/05/19 01:09:49;;;;;;;;;;;;;;;-140.72;100.00;52733.78;5003447;28;19930;-72
2023/05/19 01:12:15;;;;;;;;;;;;;;;-140.72;100.00;52737.84;5007552;28;19921;-72
2023/05/19 01:14:41;;;;;;;;;;;;;;;-140.72;100.00;52725.69;5009875;28;20408;-72
2023/05/19 01:17:08;;;;;;;;;;;;;;;-140.72;100.00;52715.53;5012555;28;19921;-72
2023/05/19 01:19:56;;;;;;;;;;;;;;;-140.72;100.00;52756.13;5009709;28;19921;-72
2023/05/19 01:22:27;;;;;;;;;;;;;;;-140.72;100.00;52745.97;5006544;28;20375;-72
2023/05/19 01:24:58;;;;;;;;;;;;;;;-140.72;100.00;52689.16;5006127;28;19930;-72
2023/05/19 01:27:40;;;;;;;;;;;;;;;-140.72;100.00;52711.47;5014580;28;20287;-72
2023/05/19 01:30:08;;;;;;;;;;;;;;;-140.72;100.00;52745.97;5008974;28;20287;-72
2023/05/19 01:32:34;;;;;;;;;;;;;;;-140.72;100.00;52703.34;5009991;28;19928;-72
2023/05/19 01:35:00;;;;;;;;;;;;;;;-140.72;100.00;52733.78;5008160;28;20020;-72
2023/05/19 01:37:25;;;;;;;;;;;;;;;-140.72;100.00;52723.66;5004743;28;19921;-72
2023/05/19 01:39:51;;;;;;;;;;;;;;;-140.72;100.00;52707.41;5013162;28;20826;-72
2023/05/19 01:42:16;;;;;;;;;;;;;;;-140.72;100.00;52687.13;5017861;28;19917;-72
2023/05/19 01:44:42;;;;;;;;;;;;;;;-140.72;100.00;52737.84;5009914;28;19968;-72
2023/05/19 01:47:08;;;;;;;;;;;;;;;-140.72;100.00;52723.66;5012874;28;19917;-72
2023/05/19 01:49:56;;;;;;;;;;;;;;;-140.72;100.00;52748.00;5011946;28;19930;-72
2023/05/19 01:52:22;;;;;;;;;;;;;;;-140.72;100.00;52715.53;5009363;28;19947;-72
2023/05/19 01:54:55;;;;;;;;;;;;;;;-140.72;100.00;52721.63;5009388;28;20033;-72
2023/05/19 01:57:37;;;;;;;;;;;;;;;-140.72;100.00;52695.25;5014635;28;20064;-72
2023/05/19 02:00:08;;;;;;;;;;;;;;;-140.72;100.00;52739.88;5015696;28;19921;-72
2023/05/19 02:02:49;;;;;;;;;;;;;;;-140.72;100.00;52735.81;5011003;28;19928;-72
2023/05/19 02:05:37;;;;;;;;;;;;;;;-140.72;100.00;52774.38;5015661;28;20024;-72
2023/05/19 02:08:15;;;;;;;;;;;;;;;-140.72;100.00;52721.63;4987579;28;19968;-72
2023/05/19 02:10:44;;;;;;;;;;;;;;;-140.72;100.00;52719.59;4997813;28;19921;-72
2023/05/19 02:13:10;;;;;;;;;;;;;;;-140.72;100.00;52715.53;5011368;28;19921;-72
2023/05/19 02:15:43;;;;;;;;;;;;;;;-140.72;100.00;52719.59;5012359;28;19922;-72
2023/05/19 02:18:12;;;;;;;;;;;;;;;-140.72;100.00;52725.69;5008977;28;19928;-72
2023/05/19 02:20:38;;;;;;;;;;;;;;;-140.72;100.00;52731.75;5012323;28;19922;-72
2023/05/19 02:23:04;;;;;;;;;;;;;;;-140.72;100.00;52721.63;5014056;28;19928;-72
2023/05/19 02:25:29;;;;;;;;;;;;;;;-140.72;100.00;52743.94;5015758;28;19971;-71
2023/05/19 02:27:54;;;;;;;;;;;;;;;-140.72;100.00;52701.31;5007732;28;19921;-72
2023/05/19 02:30:20;;;;;;;;;;;;;;;-140.72;100.00;52748.00;5013867;28;19952;-72
2023/05/19 02:32:45;;;;;;;;;;;;;;;-140.72;100.00;52721.63;4994396;28;19925;-72
2023/05/19 02:35:10;;;;;;;;;;;;;;;-140.72;100.00;52695.25;5005984;28;19929;-72
2023/05/19 02:37:36;;;;;;;;;;;;;;;-140.72;100.00;52743.94;5010832;28;19921;-72
2023/05/19 02:40:01;;;;;;;;;;;;;;;-140.72;100.00;52748.00;5015882;28;19925;-72
2023/05/19 02:42:26;;;;;;;;;;;;;;;-140.72;100.00;52695.25;5010634;28;19925;-72
2023/05/19 02:44:53;;;;;;;;;;;;;;;-140.72;100.00;52727.72;5016480;28;20020;-73
2023/05/19 02:47:18;;;;;;;;;;;;;;;-140.72;100.00;52750.03;5013917;28;19928;-72
2023/05/19 02:49:43;;;;;;;;;;;;;;;-140.72;100.00;52674.94;5015067;28;20008;-72
2023/05/19 02:52:09;;;;;;;;;;;;;;;-140.72;100.00;52743.94;5014998;28;19917;-72
2023/05/19 02:54:34;;;;;;;;;;;;;;;-140.72;100.00;52731.75;5010944;28;20367;-72
2023/05/19 02:57:00;;;;;;;;;;;;;;;-140.72;100.00;52743.94;5009824;28;19921;-72
2023/05/19 02:59:25;;;;;;;;;;;;;;;-140.72;100.00;52735.81;5013083;28;19921;-72
2023/05/19 03:01:53;;;;;;;;;;;;;;;-140.72;100.00;52731.75;5014199;28;19925;-72
2023/05/19 03:04:19;;;;;;;;;;;;;;;-140.72;100.00;52741.91;5013377;28;19929;-72
2023/05/19 03:06:44;;;;;;;;;;;;;;;-140.72;100.00;52770.31;5012662;28;20327;-72
2023/05/19 03:09:09;;;;;;;;;;;;;;;-140.72;100.00;52772.34;5013729;28;20056;-72
2023/05/19 03:11:35;;;;;;;;;;;;;;;-140.72;100.00;52733.78;5009145;28;19928;-72
2023/05/19 03:14:00;;;;;;;;;;;;;;;-140.72;100.00;52750.03;4990118;28;19944;-72
2023/05/19 03:16:26;;;;;;;;;;;;;;;-140.72;100.00;52768.28;5013242;28;19930;-72
2023/05/19 03:18:52;;;;;;;;;;;;;;;-140.72;100.00;52754.09;5009549;28;20920;-72
2023/05/19 03:21:17;;;;;;;;;;;;;;;-140.72;100.00;52743.94;5006838;28;19922;-72
2023/05/19 03:23:42;;;;;;;;;;;;;;;-140.72;100.00;52743.94;5004556;28;19928;-72
2023/05/19 03:26:07;;;;;;;;;;;;;;;-140.72;100.00;52743.94;5011224;28;20455;-72
2023/05/19 03:28:32;;;;;;;;;;;;;;;-140.72;100.00;52745.97;4996640;28;20419;-72
2023/05/19 03:30:58;;;;;;;;;;;;;;;-140.72;100.00;52745.97;5012037;28;20388;-72
2023/05/19 03:33:23;;;;;;;;;;;;;;;-140.72;100.00;52715.53;5007644;28;19922;-72
2023/05/19 03:35:49;;;;;;;;;;;;;;;-140.72;100.00;52711.47;5011478;28;19929;-72
2023/05/19 03:38:14;;;;;;;;;;;;;;;-140.72;100.00;52760.19;5013819;28;19971;-72
2023/05/19 03:40:40;;;;;;;;;;;;;;;-140.72;100.00;52784.53;5012412;28;19944;-72
2023/05/19 03:43:06;;;;;;;;;;;;;;;-140.72;100.00;52756.13;5010566;28;19918;-73
2023/05/19 03:45:31;;;;;;;;;;;;;;;-140.72;100.00;52752.06;5010493;28;19922;-73
2023/05/19 03:47:57;;;;;;;;;;;;;;;-140.72;100.00;52776.41;5010307;28;19928;-72
2023/05/19 03:50:22;;;;;;;;;;;;;;;-140.72;100.00;52766.25;5005242;28;20008;-72
2023/05/19 03:52:47;;;;;;;;;;;;;;;-140.72;100.00;52752.06;5008418;28;19918;-73
2023/05/19 03:55:15;;;;;;;;;;;;;;;-140.72;100.00;52735.81;5006101;28;19921;-72
2023/05/19 03:57:43;;;;;;;;;;;;;;;-140.72;100.00;52764.25;5009953;28;19921;-73
2023/05/19 04:00:10;;;;;;;;;;;;;;;-140.72;100.00;52782.50;5008975;28;19929;-73
2023/05/19 04:02:35;;;;;;;;;;;;;;;-140.72;100.00;52774.38;5010718;28;20024;-72
2023/05/19 04:05:03;;;;;;;;;;;;;;;-140.72;100.00;52766.25;5010759;28;20052;-72
2023/05/19 04:07:28;;;;;;;;;;;;;;;-140.72;100.00;52745.97;5011254;28;20040;-72
2023/05/19 04:09:53;;;;;;;;;;;;;;;-140.72;100.00;52784.53;5007512;28;21756;-72
2023/05/19 04:12:19;;;;;;;;;;;;;;;-140.72;100.00;52764.25;5010280;28;20453;-72
2023/05/19 04:14:44;;;;;;;;;;;;;;;-140.72;100.00;52798.72;5010926;28;19925;-72
2023/05/19 04:17:09;;;;;;;;;;;;;;;-140.72;100.00;52792.66;5012902;28;20059;-72
2023/05/19 04:19:34;;;;;;;;;;;;;;;-140.72;100.00;52788.59;5007916;28;20008;-72
2023/05/19 04:22:00;;;;;;;;;;;;;;;-140.72;100.00;52776.41;5010970;28;19921;-72
2023/05/19 04:24:25;;;;;;;;;;;;;;;-140.72;100.00;52802.78;5013531;28;19921;-73
2023/05/19 04:26:50;;;;;;;;;;;;;;;-140.72;100.00;52760.19;5012640;28;19921;-72
2023/05/19 04:29:16;;;;;;;;;;;;;;;-140.72;100.00;52756.13;5009764;28;20008;-72
2023/05/19 04:31:43;;;;;;;;;;;;;;;-140.72;100.00;52713.50;5008869;28;19922;-72
2023/05/19 04:34:08;;;;;;;;;;;;;;;-140.72;100.00;52745.97;5007896;28;19922;-72
2023/05/19 04:36:34;;;;;;;;;;;;;;;-140.72;100.00;52808.88;5005395;28;20044;-72
2023/05/19 04:39:02;;;;;;;;;;;;;;;-140.72;100.00;52768.28;5009184;28;19944;-72
2023/05/19 04:41:27;;;;;;;;;;;;;;;-140.72;100.00;52764.25;5000857;28;20327;-72
2023/05/19 04:43:52;;;;;;;;;;;;;;;-140.72;100.00;52762.22;5008442;28;20017;-72
2023/05/19 04:46:23;;;;;;;;;;;;;;;-140.72;100.00;52748.00;5009746;28;20011;-72
2023/05/19 04:48:49;;;;;;;;;;;;;;;-140.72;100.00;52711.47;5010913;28;19921;-72
2023/05/19 04:51:14;;;;;;;;;;;;;;;-140.72;100.00;52766.25;5011888;28;20341;-72
2023/05/19 04:53:40;;;;;;;;;;;;;;;-140.72;100.00;52717.56;5012811;28;19926;-72
2023/05/19 04:56:05;;;;;;;;;;;;;;;-140.72;100.00;52739.88;5011524;28;19921;-72
2023/05/19 04:58:31;;;;;;;;;;;;;;;-140.72;100.00;52741.91;5012080;28;19940;-72
2023/05/19 05:00:59;;;;;;;;;;;;;;;-140.72;100.00;52717.56;5013037;28;19926;-76
2023/05/19 05:03:25;;;;;;;;;;;;;;;-140.72;100.00;52748.00;5024619;28;19925;-76
2023/05/19 05:05:50;;;;;;;;;;;;;;;-140.72;100.00;52737.84;5005953;28;20256;-74
2023/05/19 05:08:21;;;;;;;;;;;;;;;-140.72;100.00;52711.47;5016595;28;19921;-80
2023/05/19 05:10:47;;;;;;;;;;;;;;;-140.72;100.00;52721.63;5010334;28;19921;-74
2023/05/19 05:13:12;;;;;;;;;;;;;;;-140.72;100.00;52756.13;5018917;28;19964;-74
2023/05/19 05:15:37;;;;;;;;;;;;;;;-140.72;100.00;52764.25;5015589;28;20008;-74
2023/05/19 05:18:03;;;;;;;;;;;;;;;-140.72;100.00;52758.16;5017134;28;20029;-74
2023/05/19 05:20:29;;;;;;;;;;;;;;;-140.72;100.00;52721.63;4999385;28;19929;-74
2023/05/19 05:22:54;;;;;;;;;;;;;;;-140.72;100.00;52752.06;5017159;28;19922;-74
2023/05/19 05:25:21;;;;;;;;;;;;;;;-140.72;100.00;52731.75;5015285;28;20350;-74
2023/05/19 05:27:46;;;;;;;;;;;;;;;-140.72;100.00;52745.97;5000974;28;19921;-75
2023/05/19 05:30:11;;;;;;;;;;;;;;;-140.72;100.00;52756.13;5012236;28;20387;-75
2023/05/19 05:32:37;;;;;;;;;;;;;;;-140.72;100.00;52719.59;5008119;28;19921;-76
2023/05/19 05:35:03;;;;;;;;;;;;;;;-140.72;100.00;52711.47;5009658;28;19922;-74
2023/05/19 05:37:29;;;;;;;;;;;;;;;-140.72;100.00;52709.44;5009751;28;20403;-76
2023/05/19 05:39:54;;;;;;;;;;;;;;;-140.72;100.00;52741.91;5012859;28;20371;-71
2023/05/19 05:42:19;;;;;;;;;;;;;;;-140.72;100.00;52739.88;5016550;28;19929;-73
2023/05/19 05:44:45;;;;;;;;;;;;;;;-140.72;100.00;52772.34;5011086;28;20012;-74
2023/05/19 05:47:11;;;;;;;;;;;;;;;-140.72;100.00;52737.84;5010592;28;19929;-74
2023/05/19 05:49:36;;;;;;;;;;;;;;;-140.72;100.00;52693.22;5013506;28;19983;-73
2023/05/19 05:52:02;;;;;;;;;;;;;;;-140.72;100.00;52676.97;5013269;28;19960;-74
2023/05/19 05:54:28;;;;;;;;;;;;;;;-140.72;100.00;52689.16;5009005;28;20657;-75
2023/05/19 05:56:53;;;;;;;;;;;;;;;-140.72;100.00;52683.06;5014546;28;19922;-73
2023/05/19 05:59:19;;;;;;;;;;;;;;;-140.72;100.00;52691.19;5007102;28;19922;-73
2023/05/19 06:01:44;;;;;;;;;;;;;;;-140.72;100.00;52703.34;5012431;28;19926;-73
2023/05/19 06:04:09;;;;;;;;;;;;;;;-140.72;100.00;52672.91;5013399;28;19921;-73
2023/05/19 06:06:36;;;;;;;;;;;;;;;-140.72;100.00;52705.38;5009917;28;20394;-75
2023/05/19 06:09:02;;;;;;;;;;;;;;;-140.72;100.00;52679.00;5011809;28;19968;-75
2023/05/19 06:11:27;;;;;;;;;;;;;;;-140.72;100.00;52681.03;5016600;28;19953;-76
2023/05/19 06:13:52;;;;;;;;;;;;;;;-140.72;100.00;52687.13;5009121;28;19921;-76
2023/05/19 06:16:22;;;;;;;;;;;;;;;-140.72;100.00;52652.63;4996562;28;19933;-73
2023/05/19 06:19:07;;;;;;;;;;;;;;;-140.72;100.00;52735.81;5007378;28;19944;-72
2023/05/19 06:21:32;;;;;;;;;;;;;;;-140.72;100.00;52672.91;5010254;28;19976;-73
2023/05/19 06:23:57;;;;;;;;;;;;;;;-140.72;100.00;52664.81;5010154;28;20376;-73
2023/05/19 06:26:22;;;;;;;;;;;;;;;-140.72;100.00;52638.41;5014634;28;19922;-73
2023/05/19 06:28:47;;;;;;;;;;;;;;;-140.72;100.00;52650.59;5015315;28;19921;-73
2023/05/19 06:31:13;;;;;;;;;;;;;;;-140.72;100.00;52662.78;5015369;28;19927;-72
2023/05/19 06:33:38;;;;;;;;;;;;;;;-140.72;100.00;52628.28;5014415;28;19968;-73
2023/05/19 06:36:08;;;;;;;;;;;;;;;-140.72;100.00;52640.44;5011038;28;19952;-74
2023/05/19 06:38:34;;;;;;;;;;;;;;;-140.72;100.00;52642.47;5010769;28;20387;-72
2023/05/19 06:40:59;;;;;;;;;;;;;;;-140.72;100.00;52642.47;5012624;28;19928;-73
2023/05/19 06:43:24;;;;;;;;;;;;;;;-140.72;100.00;52632.34;5011271;28;19917;-73
2023/05/19 06:45:49;;;;;;;;;;;;;;;-140.72;100.00;52624.22;5011548;28;19992;-73
2023/05/19 06:48:15;;;;;;;;;;;;;;;-140.72;100.00;52638.41;5013076;28;20309;-74
2023/05/19 06:50:40;;;;;;;;;;;;;;;-140.72;100.00;52650.59;5013761;28;20433;-74
2023/05/19 06:53:05;;;;;;;;;;;;;;;-140.72;100.00;52622.19;5014889;28;20286;-73
2023/05/19 06:55:31;;;;;;;;;;;;;;;-140.72;100.00;52595.81;5009161;28;20603;-73
2023/05/19 06:57:56;;;;;;;;;;;;;;;-140.72;100.00;52642.47;5014164;28;19925;-74
2023/05/19 07:00:21;;;;;;;;;;;;;;;-140.72;100.00;52614.06;5012497;28;19980;-76
2023/05/19 07:02:46;;;;;;;;;;;;;;;-140.72;100.00;52618.13;5012857;28;19944;-73
2023/05/19 07:05:11;;;;;;;;;;;;;;;-140.72;100.00;52622.19;5008485;28;20012;-73
2023/05/19 07:07:37;;;;;;;;;;;;;;;-140.72;100.00;52626.25;5010435;28;19996;-73
2023/05/19 07:10:02;;;;;;;;;;;;;;;-140.72;100.00;52650.59;4993989;28;19922;-74
2023/05/19 07:12:27;;;;;;;;;;;;;;;-140.72;100.00;52595.81;5016853;28;19969;-75
2023/05/19 07:15:02;;;;;;;;;;;;;;;-140.72;100.00;52616.09;5009429;28;20371;-72
2023/05/19 07:17:27;;;;;;;;;;;;;;;-140.72;100.00;52589.72;5000242;28;20390;-73
2023/05/19 07:19:52;;;;;;;;;;;;;;;-140.72;100.00;52614.06;5014799;28;19925;-72
2023/05/19 07:22:18;;;;;;;;;;;;;;;-140.72;100.00;52620.16;5006422;28;20008;-73
2023/05/19 07:24:43;;;;;;;;;;;;;;;-140.72;100.00;52593.78;5014995;28;20041;-74
2023/05/19 07:27:08;;;;;;;;;;;;;;;-140.72;100.00;52577.53;5015357;28;19971;-72
2023/05/19 07:29:33;;;;;;;;;;;;;;;-140.72;100.00;52589.72;5010373;28;19922;-73
2023/05/19 07:31:59;;;;;;;;;;;;;;;-140.72;100.00;52595.81;5009006;28;19921;-73
2023/05/19 07:34:24;;;;;;;;;;;;;;;-140.72;100.00;52575.50;5008031;28;20020;-73
2023/05/19 07:36:50;;;;;;;;;;;;;;;-140.72;100.00;52551.16;4999319;28;19932;-73
2023/05/19 07:39:15;;;;;;;;;;;;;;;-140.72;100.00;52545.06;5007842;28;19957;-73
2023/05/19 07:41:41;;;;;;;;;;;;;;;-140.72;82.67;52528.84;4998271;28;19941;-73
2023/05/19 07:44:06;;;;;;;;;;;;;;;-140.72;44.51;52508.56;5013065;28;19922;-75
2023/05/19 07:46:35;;;;;;;;;;;;;;;-140.72;34.67;52553.19;5007473;28;19917;-77
2023/05/19 07:49:00;;;;;;;;;;;;;;;-140.72;28.10;52561.31;4993870;28;19917;-74
2023/05/19 07:51:26;;;;;;;;;;;;;;;-140.72;1.33;52478.13;5013843;28;20402;-74
2023/05/19 07:53:51;;;;;;;;;;;;;;;-140.72;0.00;52504.50;5008998;28;19921;-74
2023/05/19 07:56:17;;;;;;;;;;;;;;;-140.72;0.00;52482.16;5009395;28;20142;-73
2023/05/19 07:58:42;;;;;;;;;;;;;;;-140.72;0.00;52528.84;5005601;28;20320;-74
2023/05/19 08:01:07;;;;;;;;;;;;;;;-140.72;0.00;52463.91;5012580;28;19917;-74
2023/05/19 08:03:32;;;;;;;;;;;;;;;-140.72;0.00;52506.53;5013378;28;19932;-77
2023/05/19 08:05:57;;;;;;;;;;;;;;;-140.72;0.00;52472.03;5008758;28;19944;-76
2023/05/19 08:08:23;;;;;;;;;;;;;;;-140.72;0.00;52455.78;5011799;28;19921;-76
2023/05/19 08:10:48;;;;;;;;;;;;;;;-140.72;0.00;52465.94;5009729;28;19943;-74
2023/05/19 08:13:13;;;;;;;;;;;;;;;-140.72;0.00;52476.09;5013791;28;19957;-73
2023/05/19 08:15:41;;;;;;;;;;;;;;;-140.72;0.00;52451.72;5014504;28;19932;-73
2023/05/19 08:18:07;;;;;;;;;;;;;;;-140.72;0.00;52433.47;5011957;28;19918;-73
2023/05/19 08:20:32;;;;;;;;;;;;;;;-140.72;0.00;52419.28;5013055;28;19972;-73
2023/05/19 08:22:58;;;;;;;;;;;;;;;-140.72;0.00;52472.03;5012361;28;19917;-73
2023/05/19 08:25:23;;;;;;;;;;;;;;;-140.72;0.00;52394.91;5001993;28;20020;-73
2023/05/19 08:27:48;;;;;;;;;;;;;;;-140.72;0.00;52451.72;5010501;28;19979;-73
2023/05/19 08:30:14;;;;;;;;;;;;;;;-140.72;0.00;52407.09;5012553;28;19972;-73
2023/05/19 08:32:39;;;;;;;;;;;;;;;-140.72;0.00;52398.97;4948228;28;1800932;-74
2023/05/19 08:35:04;;;;;;;;;;;;;;;-140.72;0.00;52394.91;5013384;28;19922;-72
2023/05/19 08:37:30;;;;;;;;;;;;;;;-140.72;0.00;52396.94;5012747;28;20021;-72
2023/05/19 08:39:56;;;;;;;;;;;;;;;-140.72;0.00;52382.75;5015551;28;20009;-72
2023/05/19 08:42:21;;;;;;;;;;;;;;;-140.72;0.00;52372.59;5017625;28;19965;-73
2023/05/19 08:44:46;;;;;;;;;;;;;;;-140.72;0.00;52380.72;5017978;28;19917;-74
2023/05/19 08:47:12;;;;;;;;;;;;;;;-140.72;0.00;52370.56;5003930;28;19918;-74
2023/05/19 08:49:45;;;;;;;;;;;;;;;-140.72;0.00;52338.09;5011514;28;20313;-73
2023/05/19 08:52:10;;;;;;;;;;;;;;;-140.72;0.00;52305.63;4993914;28;19924;-73
2023/05/19 08:54:40;;;;;;;;;;;;;;;-140.72;0.00;52332.03;5011764;28;19925;-73
2023/05/19 08:57:05;;;;;;;;;;;;;;;-140.72;0.00;52325.94;5013085;28;19959;-73
2023/05/19 08:59:31;;;;;;;;;;;;;;;-140.72;0.00;52277.22;5014014;28;20020;-78
2023/05/19 09:01:56;;;;;;;;;;;;;;;-140.72;0.00;52285.34;5006539;28;19928;-78
2023/05/19 09:04:23;;;;;;;;;;;;;;;-140.72;0.00;52285.34;5018253;28;19997;-77
2023/05/19 09:06:49;;;;;;;;;;;;;;;-140.72;0.00;52283.31;5029947;28;19917;-78
2023/05/19 09:09:14;;;;;;;;;;;;;;;-140.72;0.00;52250.84;5016909;28;19929;-77
2023/05/19 09:11:40;;;;;;;;;;;;;;;-140.72;0.00;52277.22;5015405;28;19929;-78
2023/05/19 09:14:05;;;;;;;;;;;;;;;-140.72;0.00;52285.34;5014380;28;19918;-77
2023/05/19 09:16:32;;;;;;;;;;;;;;;-140.72;0.00;52273.19;5008195;28;20343;-77
2023/05/19 09:18:59;;;;;;;;;;;;;;;-140.72;0.00;52216.34;5003232;28;19918;-77
2023/05/19 09:21:30;;;;;;;;;;;;;;;-140.72;0.00;52228.53;5009120;28;19921;-77
2023/05/19 09:23:57;;;;;;;;;;;;;;;-140.72;0.00;52200.13;5006291;28;19922;-78
2023/05/19 09:26:22;;;;;;;;;;;;;;;-140.72;0.00;52165.63;5014364;28;20275;-76
2023/05/19 09:28:47;;;;;;;;;;;;;;;-140.72;0.00;52165.63;5013350;28;19924;-75
2023/05/19 09:31:13;;;;;;;;;;;;;;;-140.72;0.00;52175.78;5012812;28;20368;-75
2023/05/19 09:33:41;;;;;;;;;;;;;;;-140.72;0.00;52179.84;5013292;28;19925;-76
2023/05/19 09:36:10;;;;;;;;;;;;;;;-140.72;0.00;52106.78;5014091;28;20362;-77
2023/05/19 09:38:38;;;;;;;;;;;;;;;-140.72;0.00;52127.09;5013794;28;20286;-77
2023/05/19 09:41:04;;;;;;;;;;;;;;;-140.72;0.00;52135.19;5016245;28;19936;-81
2023/05/19 09:43:30;;;;;;;;;;;;;;;-140.72;0.00;52196.06;5014160;28;19921;-78
2023/05/19 09:46:00;;;;;;;;;;;;;;;-140.72;0.00;52098.69;5011661;28;20004;-78
2023/05/19 09:48:26;;;;;;;;;;;;;;;-140.72;0.00;52104.75;5013463;28;19959;-78
2023/05/19 09:50:52;;;;;;;;;;;;;;;-140.72;0.00;52198.09;5013089;28;19917;-79
2023/05/19 09:53:17;;;;;;;;;;;;;;;-140.72;0.00;52110.84;5015175;28;19918;-78
2023/05/19 09:55:42;;;;;;;;;;;;;;;-140.72;0.00;52052.00;5017792;28;19917;-78
2023/05/19 09:58:08;;;;;;;;;;;;;;;-140.72;0.00;52031.72;5015659;28;19968;-79
2023/05/19 10:00:34;;;;;;;;;;;;;;;-140.72;0.00;52031.72;5004716;28;19944;-79
2023/05/19 10:02:59;;;;;;;;;;;;;;;-140.72;0.00;51966.81;5024674;28;19967;-79
2023/05/19 10:05:25;;;;;;;;;;;;;;;-140.72;0.00;51948.53;5009849;28;19925;-80
2023/05/19 10:07:51;;;;;;;;;;;;;;;-140.72;0.00;52005.34;5013193;28;19956;-78
2023/05/19 10:10:19;;;;;;;;;;;;;;;-140.72;0.00;52021.56;5001008;28;20349;-77
2023/05/19 10:12:44;;;;;;;;;;;;;;;-140.72;0.00;51964.78;5018754;28;19921;-78
2023/05/19 10:15:11;;;;;;;;;;;;;;;-140.72;0.00;51954.63;5012080;28;19984;-78
2023/05/19 10:17:40;;;;;;;;;;;;;;;-140.72;0.00;51918.09;5015645;28;19972;-77
2023/05/19 10:20:15;;;;;;;;;;;;;;;-140.72;0.00;51914.03;5004059;28;19918;-76
2023/05/19 10:22:41;;;;;;;;;;;;;;;-140.72;0.00;51942.44;5013997;28;20355;-76
2023/05/19 10:25:07;;;;;;;;;;;;;;;-140.72;0.00;52009.41;5015965;28;19928;-78
2023/05/19 10:27:35;;;;;;;;;;;;;;;-140.72;0.00;52017.53;5002808;28;19917;-78
2023/05/19 10:30:04;;;;;;;;;;;;;;;-140.72;0.00;52001.28;4999575;28;20064;-77
2023/05/19 10:32:31;;;;;;;;;;;;;;;-140.72;0.00;51976.94;4996905;28;19953;-80
2023/05/19 10:35:06;;;;;;;;;;;;;;;-140.72;0.00;51989.13;4991789;28;19965;-78
2023/05/19 10:37:41;;;;;;;;;;;;;;;-140.72;0.00;51926.22;5014753;28;19941;-79
2023/05/19 10:40:15;;;;;;;;;;;;;;;-140.72;0.00;52001.28;5003948;28;19926;-79
2023/05/19 10:42:52;;;;;;;;;;;;;;;-140.72;0.00;51956.66;5015203;28;19918;-80
2023/05/19 10:45:19;;;;;;;;;;;;;;;-140.72;0.00;51960.72;4998612;28;19922;-82
2023/05/19 10:47:45;;;;;;;;;;;;;;;-140.72;0.00;51964.78;4995672;28;19933;-78
2023/05/19 10:50:10;;;;;;;;;;;;;;;-140.72;0.00;51974.91;4995017;28;19917;-79
2023/05/19 10:52:36;;;;;;;;;;;;;;;-140.72;0.00;51976.94;5021151;28;20375;-82
2023/05/19 10:55:01;;;;;;;;;;;;;;;-140.72;0.00;51936.38;4997549;28;19929;-75
2023/05/19 10:57:27;;;;;;;;;;;;;;;-140.72;0.00;52001.28;4996175;28;19917;-75
2023/05/19 10:59:54;;;;;;;;;;;;;;;-140.72;0.00;52088.53;4982895;28;19933;-74
2023/05/19 11:02:39;;;;;;;;;;;;;;;-140.72;0.00;51938.41;4996180;28;20391;-76
2023/05/19 11:05:08;;;;;;;;;;;;;;;-140.72;0.00;51910.00;4977261;28;19929;-76
2023/05/19 11:07:33;;;;;;;;;;;;;;;-140.72;0.00;51857.25;4978855;28;19918;-76
2023/05/19 11:09:58;;;;;;;;;;;;;;;-140.72;0.00;51796.38;5005421;28;19941;-76
2023/05/19 11:12:24;;;;;;;;;;;;;;;-140.72;0.00;51841.00;4995406;28;19944;-77
2023/05/19 11:14:53;;;;;;;;;;;;;;;-140.72;0.00;51928.25;4991965;28;20004;-76
2023/05/19 11:17:20;;;;;;;;;;;;;;;-140.72;0.00;52015.50;4991871;28;19978;-76
2023/05/19 11:19:53;;;;;;;;;;;;;;;-140.72;0.00;51873.47;4991973;28;20013;-76
2023/05/19 11:22:21;;;;;;;;;;;;;;;-140.72;0.00;51966.81;4989402;28;19917;-76
2023/05/19 11:24:51;;;;;;;;;;;;;;;-140.72;0.00;51930.28;4994840;28;19936;-76
2023/05/19 11:27:16;;;;;;;;;;;;;;;-140.72;0.00;51871.44;4994093;28;19989;-75
2023/05/19 11:29:41;;;;;;;;;;;;;;;-140.72;0.00;51881.59;4995963;28;19922;-78
2023/05/19 11:32:07;;;;;;;;;;;;;;;-140.72;0.00;51838.97;4993732;28;20307;-75
2023/05/19 11:34:34;;;;;;;;;;;;;;;-140.72;0.00;51828.84;4978679;28;19925;-75
2023/05/19 11:37:00;;;;;;;;;;;;;;;-140.72;0.00;51826.81;4990970;28;19922;-75
2023/05/19 11:39:26;;;;;;;;;;;;;;;-140.72;0.00;51836.94;4976427;28;19919;-76
2023/05/19 11:41:54;;;;;;;;;;;;;;;-140.72;0.00;51905.94;4977382;28;20466;-79
2023/05/19 11:44:19;;;;;;;;;;;;;;;-140.72;0.00;51843.03;4976900;28;19918;-78
2023/05/19 11:46:44;;;;;;;;;;;;;;;-140.72;0.00;51804.50;4985194;28;19929;-77
2023/05/19 11:49:09;;;;;;;;;;;;;;;-140.72;0.00;51838.97;4978715;28;19929;-76
2023/05/19 11:51:35;;;;;;;;;;;;;;;-140.72;0.00;51820.72;4975467;28;19961;-76
2023/05/19 11:54:01;;;;;;;;;;;;;;;-140.72;0.00;51794.34;4975663;28;19969;-77
2023/05/19 11:56:32;;;;;;;;;;;;;;;-140.72;0.00;51800.44;4979089;28;19926;-83
2023/05/19 11:58:57;;;;;;;;;;;;;;;-140.72;0.00;51778.13;4975016;28;19962;-78
2023/05/19 12:01:24;;;;;;;;;;;;;;;-140.72;0.00;51735.50;4973018;28;19965;-76
2023/05/19 12:03:49;;;;;;;;;;;;;;;-140.72;0.00;51707.09;4975483;28;19929;-84
2023/05/19 12:06:16;;;;;;;;;;;;;;;-140.72;0.00;51723.34;4976491;28;19922;-77
2023/05/19 12:08:41;;;;;;;;;;;;;;;-140.72;0.00;51731.44;4979391;28;19968;-77
2023/05/19 12:11:06;;;;;;;;;;;;;;;-140.72;0.00;51784.19;4992828;28;20379;-77
2023/05/19 12:13:32;;;;;;;;;;;;;;;-140.72;0.00;51776.09;4993954;28;19937;-77
2023/05/19 12:16:02;;;;;;;;;;;;;;;-140.72;0.00;51767.97;4978044;28;19924;-77
2023/05/19 12:18:35;;;;;;;;;;;;;;;-140.72;0.00;51759.84;4977930;28;19930;-79
2023/05/19 12:21:00;;;;;;;;;;;;;;;-140.72;0.00;51733.47;4975627;28;19925;-77
2023/05/19 12:23:26;;;;;;;;;;;;;;;-140.72;0.00;51690.88;4992545;28;20284;-78